sensor_id;sensor_type;location;lat;lon;timestamp;pressure;altitude;pressure_sealevel;temperature;humidity
44359;BME280;30077;52.474;13.326;2023-03-21T00:01:26;101002.81;;;12.90;63.63
44359;BME280;30077;52.474;13.326;2023-03-21T00:06:27;101006.25;;;12.92;64.04
44359;BME280;30077;52.474;13.326;2023-03-21T00:11:27;100994.91;;;12.87;64.28
44359;BME280;30077;52.474;13.326;2023-03-21T00:16:27;100996.59;;;12.90;64.35
44359;BME280;30077;52.474;13.326;2023-03-21T00:21:29;100994.81;;;12.89;64.31
44359;BME280;30077;52.474;13.326;2023-03-21T00:26:31;100992.25;;;12.87;64.54
44359;BME280;30077;52.474;13.326;2023-03-21T00:31:31;100992.25;;;12.87;64.82
44359;BME280;30077;52.474;13.326;2023-03-21T00:36:31;100980.09;;;12.80;65.28
44359;BME280;30077;52.474;13.326;2023-03-21T00:41:32;100981.81;;;12.81;65.86
44359;BME280;30077;52.474;13.326;2023-03-21T00:46:32;100983.41;;;12.85;65.47
44359;BME280;30077;52.474;13.326;2023-03-21T00:51:34;100970.97;;;12.84;64.96
44359;BME280;30077;52.474;13.326;2023-03-21T00:56:35;100987.03;;;12.84;65.15
44359;BME280;30077;52.474;13.326;2023-03-21T01:01:35;100974.44;;;12.86;65.37
44359;BME280;30077;52.474;13.326;2023-03-21T01:06:35;100978.22;;;12.82;65.61
44359;BME280;30077;52.474;13.326;2023-03-21T01:11:39;100973.88;;;12.80;66.15
44359;BME280;30077;52.474;13.326;2023-03-21T01:16:41;100969.25;;;12.83;65.41
44359;BME280;30077;52.474;13.326;2023-03-21T01:21:41;100974.81;;;12.79;65.75
44359;BME280;30077;52.474;13.326;2023-03-21T01:26:41;100969.38;;;12.80;65.81
44359;BME280;30077;52.474;13.326;2023-03-21T01:31:42;100967.66;;;12.79;65.78
44359;BME280;30077;52.474;13.326;2023-03-21T01:36:42;100964.41;;;12.72;66.26
44359;BME280;30077;52.474;13.326;2023-03-21T01:41:42;100962.88;;;12.67;66.43
44359;BME280;30077;52.474;13.326;2023-03-21T01:46:46;100959.72;;;12.59;66.87
44359;BME280;30077;52.474;13.326;2023-03-21T01:51:49;100964.50;;;12.52;66.87
44359;BME280;30077;52.474;13.326;2023-03-21T01:56:50;100963.25;;;12.42;67.66
44359;BME280;30077;52.474;13.326;2023-03-21T02:01:52;100962.06;;;12.47;68.01
44359;BME280;30077;52.474;13.326;2023-03-21T02:07:03;100955.41;;;12.37;68.93
44359;BME280;30077;52.474;13.326;2023-03-21T02:12:04;100959.97;;;12.35;69.31
44359;BME280;30077;52.474;13.326;2023-03-21T02:27:33;100951.53;;;12.25;70.54
44359;BME280;30077;52.474;13.326;2023-03-21T02:32:49;100939.22;;;12.21;71.13
44359;BME280;30077;52.474;13.326;2023-03-21T02:37:58;100948.75;;;12.27;71.07
44359;BME280;30077;52.474;13.326;2023-03-21T02:43:03;100949.06;;;12.21;71.71
44359;BME280;30077;52.474;13.326;2023-03-21T02:48:12;100947.03;;;12.26;72.14
44359;BME280;30077;52.474;13.326;2023-03-21T02:53:15;100948.75;;;12.27;71.71
44359;BME280;30077;52.474;13.326;2023-03-21T02:58:17;100947.03;;;12.26;72.42
44359;BME280;30077;52.474;13.326;2023-03-21T03:03:18;100945.31;;;12.25;72.43
44359;BME280;30077;52.474;13.326;2023-03-21T03:18:51;100956.00;;;12.25;73.74
44359;BME280;30077;52.474;13.326;2023-03-21T03:23:53;100949.06;;;12.21;74.73
44359;BME280;30077;52.474;13.326;2023-03-21T03:28:55;100947.31;;;12.20;75.56
44359;BME280;30077;52.474;13.326;2023-03-21T03:34:04;100951.38;;;12.10;76.59
44359;BME280;30077;52.474;13.326;2023-03-21T03:39:07;100957.72;;;12.07;77.55
44359;BME280;30077;52.474;13.326;2023-03-21T03:44:09;100954.19;;;12.07;78.87
44359;BME280;30077;52.474;13.326;2023-03-21T03:49:11;100955.16;;;12.06;79.61
44359;BME280;30077;52.474;13.326;2023-03-21T03:54:13;100955.06;;;12.07;78.72
44359;BME280;30077;52.474;13.326;2023-03-21T03:59:17;100964.53;;;12.14;78.35
44359;BME280;30077;52.474;13.326;2023-03-21T04:04:21;100962.09;;;12.10;77.92
44359;BME280;30077;52.474;13.326;2023-03-21T04:09:23;100963.53;;;12.17;77.90
44359;BME280;30077;52.474;13.326;2023-03-21T04:14:24;100942.28;;;12.14;77.53
44359;BME280;30077;52.474;13.326;2023-03-21T04:19:24;100958.19;;;12.17;77.52
44359;BME280;30077;52.474;13.326;2023-03-21T04:24:25;100941.47;;;12.12;77.71
44359;BME280;30077;52.474;13.326;2023-03-21T04:29:26;100945.44;;;12.03;78.33
44359;BME280;30077;52.474;13.326;2023-03-21T04:34:28;100948.03;;;12.04;78.76
44359;BME280;30077;52.474;13.326;2023-03-21T04:39:28;100947.31;;;12.01;78.75
44359;BME280;30077;52.474;13.326;2023-03-21T04:44:28;100956.41;;;11.97;79.57
44359;BME280;30077;52.474;13.326;2023-03-21T04:49:29;100948.34;;;11.98;80.63
44359;BME280;30077;52.474;13.326;2023-03-21T04:54:29;100953.69;;;11.98;81.72
44359;BME280;30077;52.474;13.326;2023-03-21T04:59:31;100958.16;;;11.98;82.72
44359;BME280;30077;52.474;13.326;2023-03-21T05:04:31;100957.28;;;11.97;84.17
44359;BME280;30077;52.474;13.326;2023-03-21T05:09:31;100952.59;;;12.02;83.52
44359;BME280;30077;52.474;13.326;2023-03-21T05:14:31;100943.63;;;12.03;82.94
44359;BME280;30077;52.474;13.326;2023-03-21T05:19:32;100953.25;;;12.08;82.75
44359;BME280;30077;52.474;13.326;2023-03-21T05:24:35;100947.47;;;12.17;83.12
44359;BME280;30077;52.474;13.326;2023-03-21T05:29:38;100946.03;;;12.28;83.61
44359;BME280;30077;52.474;13.326;2023-03-21T05:34:38;100947.25;;;12.02;86.41
44359;BME280;30077;52.474;13.326;2023-03-21T05:39:38;100944.44;;;12.06;86.55
44359;BME280;30077;52.474;13.326;2023-03-21T05:44:38;100948.13;;;12.22;85.72
44359;BME280;30077;52.474;13.326;2023-03-21T05:49:39;100947.69;;;12.31;86.14
44359;BME280;30077;52.474;13.326;2023-03-21T05:54:39;100951.63;;;12.41;84.50
44359;BME280;30077;52.474;13.326;2023-03-21T05:59:40;100950.53;;;12.45;84.05
44359;BME280;30077;52.474;13.326;2023-03-21T06:04:40;100945.84;;;12.50;83.21
44359;BME280;30077;52.474;13.326;2023-03-21T06:09:40;100954.09;;;12.65;83.04
44359;BME280;30077;52.474;13.326;2023-03-21T06:14:40;100958.97;;;12.74;82.88
44359;BME280;30077;52.474;13.326;2023-03-21T06:19:41;100959.16;;;12.71;82.03
44359;BME280;30077;52.474;13.326;2023-03-21T06:24:41;100960.41;;;12.81;81.17
44359;BME280;30077;52.474;13.326;2023-03-21T06:29:41;100959.09;;;12.90;81.07
44359;BME280;30077;52.474;13.326;2023-03-21T06:34:41;100964.31;;;12.74;81.62
44359;BME280;30077;52.474;13.326;2023-03-21T06:39:42;100963.06;;;12.64;82.14
44359;BME280;30077;52.474;13.326;2023-03-21T06:44:43;100964.19;;;12.77;83.27
44359;BME280;30077;52.474;13.326;2023-03-21T06:49:46;100969.25;;;12.83;83.07
44359;BME280;30077;52.474;13.326;2023-03-21T06:54:46;100972.25;;;12.94;82.40
44359;BME280;30077;52.474;13.326;2023-03-21T06:59:46;100973.06;;;12.77;83.59
44359;BME280;30077;52.474;13.326;2023-03-21T07:04:46;100971.25;;;12.78;84.17
44359;BME280;30077;52.474;13.326;2023-03-21T07:09:47;100967.72;;;12.77;84.53
44359;BME280;30077;52.474;13.326;2023-03-21T07:14:47;100971.97;;;12.82;86.62
44359;BME280;30077;52.474;13.326;2023-03-21T07:19:47;100974.91;;;12.94;85.71
44359;BME280;30077;52.474;13.326;2023-03-21T07:24:47;100978.22;;;12.99;86.02
44359;BME280;30077;52.474;13.326;2023-03-21T07:29:47;100980.75;;;13.02;85.26
44359;BME280;30077;52.474;13.326;2023-03-21T07:34:49;100982.34;;;13.07;85.02
44359;BME280;30077;52.474;13.326;2023-03-21T07:39:49;100988.06;;;13.35;84.04
44359;BME280;30077;52.474;13.326;2023-03-21T07:44:50;100989.31;;;13.45;82.23
44359;BME280;30077;52.474;13.326;2023-03-21T07:49:51;100991.53;;;13.37;82.06
44359;BME280;30077;52.474;13.326;2023-03-21T07:54:51;100981.59;;;13.39;82.29
44359;BME280;30077;52.474;13.326;2023-03-21T07:59:51;100974.44;;;13.40;81.72
44359;BME280;30077;52.474;13.326;2023-03-21T08:04:52;100985.84;;;13.43;82.02
44359;BME280;30077;52.474;13.326;2023-03-21T08:09:52;100976.88;;;13.44;82.22
44359;BME280;30077;52.474;13.326;2023-03-21T08:14:52;100971.97;;;13.53;82.53
44359;BME280;30077;52.474;13.326;2023-03-21T08:19:53;100978.03;;;13.73;83.22
44359;BME280;30077;52.474;13.326;2023-03-21T08:24:53;100974.22;;;13.78;83.80
44359;BME280;30077;52.474;13.326;2023-03-21T08:29:53;100981.53;;;13.91;84.40
44359;BME280;30077;52.474;13.326;2023-03-21T08:34:57;100979.63;;;13.93;86.36
44359;BME280;30077;52.474;13.326;2023-03-21T08:39:57;100988.16;;;14.02;86.17
44359;BME280;30077;52.474;13.326;2023-03-21T08:44:58;100981.88;;;14.01;86.32
44359;BME280;30077;52.474;13.326;2023-03-21T08:49:58;100980.47;;;14.27;85.64
44359;BME280;30077;52.474;13.326;2023-03-21T08:54:58;100971.91;;;14.36;84.23
44359;BME280;30077;52.474;13.326;2023-03-21T09:00:01;100979.13;;;14.03;85.83
44359;BME280;30077;52.474;13.326;2023-03-21T09:05:06;100987.31;;;14.17;86.08
44359;BME280;30077;52.474;13.326;2023-03-21T09:10:08;100984.66;;;14.00;86.67
44359;BME280;30077;52.474;13.326;2023-03-21T09:15:09;100981.88;;;14.34;84.48
44359;BME280;30077;52.474;13.326;2023-03-21T09:20:11;100980.38;;;14.44;84.20
44359;BME280;30077;52.474;13.326;2023-03-21T09:25:17;100977.28;;;14.36;84.47
44359;BME280;30077;52.474;13.326;2023-03-21T09:30:18;100980.28;;;14.30;83.85
44359;BME280;30077;52.474;13.326;2023-03-21T09:35:20;100974.84;;;14.32;83.72
44359;BME280;30077;52.474;13.326;2023-03-21T09:45:47;100977.63;;;14.46;82.32
44359;BME280;30077;52.474;13.326;2023-03-21T09:50:51;100978.19;;;14.53;80.83
44359;BME280;30077;52.474;13.326;2023-03-21T09:55:52;100972.09;;;14.49;81.92
44359;BME280;30077;52.474;13.326;2023-03-21T10:00:57;100969.50;;;14.79;82.49
44359;BME280;30077;52.474;13.326;2023-03-21T10:06:01;100959.56;;;15.11;79.75
44359;BME280;30077;52.474;13.326;2023-03-21T10:11:05;100964.19;;;15.24;78.09
44359;BME280;30077;52.474;13.326;2023-03-21T10:16:12;100958.63;;;15.27;77.65
44359;BME280;30077;52.474;13.326;2023-03-21T10:21:20;100951.38;;;15.13;77.60
44359;BME280;30077;52.474;13.326;2023-03-21T10:26:23;100946.19;;;15.10;78.42
44359;BME280;30077;52.474;13.326;2023-03-21T10:31:25;100933.88;;;15.22;78.45
44359;BME280;30077;52.474;13.326;2023-03-21T10:36:29;100930.09;;;15.83;75.31
44359;BME280;30077;52.474;13.326;2023-03-21T10:41:31;100920.94;;;16.28;72.51
44359;BME280;30077;52.474;13.326;2023-03-21T10:46:31;100917.28;;;16.29;71.07
44359;BME280;30077;52.474;13.326;2023-03-21T10:51:32;100929.50;;;16.35;71.96
44359;BME280;30077;52.474;13.326;2023-03-21T10:56:35;100930.94;;;16.26;71.61
44359;BME280;30077;52.474;13.326;2023-03-21T11:01:38;100925.56;;;16.12;71.23
44359;BME280;30077;52.474;13.326;2023-03-21T11:06:39;100921.34;;;15.94;72.59
44359;BME280;30077;52.474;13.326;2023-03-21T11:11:42;100925.81;;;15.95;72.51
44359;BME280;30077;52.474;13.326;2023-03-21T11:16:48;100918.66;;;16.08;72.13
44359;BME280;30077;52.474;13.326;2023-03-21T11:21:48;100915.38;;;16.31;71.64
44359;BME280;30077;52.474;13.326;2023-03-21T11:26:48;100911.78;;;16.45;70.88
44359;BME280;30077;52.474;13.326;2023-03-21T11:31:49;100905.41;;;16.73;69.38
44359;BME280;30077;52.474;13.326;2023-03-21T11:36:50;100890.50;;;16.95;67.40
44359;BME280;30077;52.474;13.326;2023-03-21T11:41:50;100884.47;;;16.64;68.77
44359;BME280;30077;52.474;13.326;2023-03-21T11:46:50;100889.06;;;16.76;67.70
44359;BME280;30077;52.474;13.326;2023-03-21T11:51:53;100890.19;;;16.87;67.83
44359;BME280;30077;52.474;13.326;2023-03-21T11:56:59;100881.50;;;17.08;67.11
44359;BME280;30077;52.474;13.326;2023-03-21T12:07:26;100864.53;;;17.06;65.98
44359;BME280;30077;52.474;13.326;2023-03-21T12:12:48;100860.66;;;16.98;66.51
44359;BME280;30077;52.474;13.326;2023-03-21T12:28:21;100845.78;;;17.56;64.30
44359;BME280;30077;52.474;13.326;2023-03-21T12:33:42;100833.50;;;17.65;63.86
44359;BME280;30077;52.474;13.326;2023-03-21T12:38:55;100826.34;;;17.64;62.71
44359;BME280;30077;52.474;13.326;2023-03-21T12:44:10;100818.50;;;17.48;63.79
44359;BME280;30077;52.474;13.326;2023-03-21T12:49:17;100816.91;;;17.32;65.00
44359;BME280;30077;52.474;13.326;2023-03-21T12:54:24;100828.75;;;17.17;64.98
44359;BME280;30077;52.474;13.326;2023-03-21T12:59:36;100808.72;;;17.21;64.30
44359;BME280;30077;52.474;13.326;2023-03-21T13:04:55;100800.06;;;17.42;64.10
44359;BME280;30077;52.474;13.326;2023-03-21T13:09:56;100798.34;;;17.28;64.97
44359;BME280;30077;52.474;13.326;2023-03-21T13:20:24;100785.84;;;17.14;64.78
44359;BME280;30077;52.474;13.326;2023-03-21T13:25:28;100788.09;;;16.95;65.86
44359;BME280;30077;52.474;13.326;2023-03-21T13:30:32;100774.41;;;16.98;66.30
44359;BME280;30077;52.474;13.326;2023-03-21T13:35:33;100775.28;;;16.86;66.71
44359;BME280;30077;52.474;13.326;2023-03-21T13:40:36;100780.03;;;16.82;67.55
44359;BME280;30077;52.474;13.326;2023-03-21T13:45:44;100769.44;;;16.92;66.46
44359;BME280;30077;52.474;13.326;2023-03-21T13:50:52;100760.59;;;16.77;67.31
44359;BME280;30077;52.474;13.326;2023-03-21T14:06:15;100764.16;;;16.77;67.68
44359;BME280;30077;52.474;13.326;2023-03-21T14:11:17;100754.59;;;16.86;68.19
44359;BME280;30077;52.474;13.326;2023-03-21T14:16:18;100751.88;;;16.99;67.82
44359;BME280;30077;52.474;13.326;2023-03-21T14:21:22;100742.94;;;17.11;67.27
44359;BME280;30077;52.474;13.326;2023-03-21T14:26:24;100740.97;;;17.13;68.01
44359;BME280;30077;52.474;13.326;2023-03-21T14:31:24;100734.25;;;17.31;67.86
44359;BME280;30077;52.474;13.326;2023-03-21T14:36:26;100727.25;;;17.42;67.69
44359;BME280;30077;52.474;13.326;2023-03-21T14:41:27;100714.75;;;17.77;65.80
44359;BME280;30077;52.474;13.326;2023-03-21T14:46:28;100719.69;;;17.84;65.14
44359;BME280;30077;52.474;13.326;2023-03-21T14:51:28;100715.81;;;17.75;65.34
44359;BME280;30077;52.474;13.326;2023-03-21T14:56:28;100705.22;;;17.48;66.09
44359;BME280;30077;52.474;13.326;2023-03-21T15:01:29;100705.63;;;17.18;67.87
44359;BME280;30077;52.474;13.326;2023-03-21T15:06:31;100690.34;;;16.93;69.15
44359;BME280;30077;52.474;13.326;2023-03-21T15:11:35;100687.97;;;16.75;70.31
44359;BME280;30077;52.474;13.326;2023-03-21T15:16:36;100683.31;;;16.77;70.58
44359;BME280;30077;52.474;13.326;2023-03-21T15:21:37;100677.00;;;16.78;70.66
44359;BME280;30077;52.474;13.326;2023-03-21T15:26:42;100675.69;;;16.84;70.01
44359;BME280;30077;52.474;13.326;2023-03-21T15:31:45;100677.94;;;16.77;69.84
44359;BME280;30077;52.474;13.326;2023-03-21T15:36:46;100672.88;;;16.60;71.35
44359;BME280;30077;52.474;13.326;2023-03-21T15:42:18;100671.88;;;16.48;71.14
44359;BME280;30077;52.474;13.326;2023-03-21T15:52:41;100659.91;;;16.40;71.78
44359;BME280;30077;52.474;13.326;2023-03-21T15:57:41;100654.75;;;16.24;71.91
44359;BME280;30077;52.474;13.326;2023-03-21T16:02:47;100656.22;;;16.15;72.75
44359;BME280;30077;52.474;13.326;2023-03-21T16:07:47;100646.84;;;16.08;73.20
44359;BME280;30077;52.474;13.326;2023-03-21T16:12:47;100645.84;;;15.96;73.61
44359;BME280;30077;52.474;13.326;2023-03-21T16:17:55;100637.13;;;15.93;74.21
44359;BME280;30077;52.474;13.326;2023-03-21T16:22:56;100645.41;;;15.89;74.23
44359;BME280;30077;52.474;13.326;2023-03-21T16:27:56;100649.66;;;15.79;75.13
44359;BME280;30077;52.474;13.326;2023-03-21T16:32:56;100650.31;;;15.70;75.63
44359;BME280;30077;52.474;13.326;2023-03-21T16:37:56;100653.19;;;15.67;75.87
44359;BME280;30077;52.474;13.326;2023-03-21T16:42:57;100651.47;;;15.66;75.96
44359;BME280;30077;52.474;13.326;2023-03-21T16:47:57;100658.00;;;15.62;76.18
44359;BME280;30077;52.474;13.326;2023-03-21T16:52:57;100656.47;;;15.58;76.53
44359;BME280;30077;52.474;13.326;2023-03-21T16:57:58;100652.06;;;15.43;77.66
44359;BME280;30077;52.474;13.326;2023-03-21T17:02:59;100648.22;;;15.47;77.75
44359;BME280;30077;52.474;13.326;2023-03-21T17:07:59;100638.81;;;15.39;78.63
44359;BME280;30077;52.474;13.326;2023-03-21T17:13:01;100623.88;;;15.35;78.57
44359;BME280;30077;52.474;13.326;2023-03-21T17:18:01;100633.56;;;15.38;78.41
44359;BME280;30077;52.474;13.326;2023-03-21T17:23:02;100626.56;;;15.35;78.56
44359;BME280;30077;52.474;13.326;2023-03-21T17:28:02;100626.00;;;15.30;79.07
44359;BME280;30077;52.474;13.326;2023-03-21T17:33:02;100621.03;;;15.24;79.41
44359;BME280;30077;52.474;13.326;2023-03-21T17:38:04;100629.88;;;15.26;79.50
44359;BME280;30077;52.474;13.326;2023-03-21T17:43:07;100612.75;;;15.27;79.78
44359;BME280;30077;52.474;13.326;2023-03-21T17:48:13;100619.59;;;15.33;79.75
44359;BME280;30077;52.474;13.326;2023-03-21T17:53:13;100614.41;;;15.30;79.87
44359;BME280;30077;52.474;13.326;2023-03-21T17:58:13;100610.34;;;15.37;79.88
44359;BME280;30077;52.474;13.326;2023-03-21T18:03:14;100618.50;;;15.35;79.56
44359;BME280;30077;52.474;13.326;2023-03-21T18:08:14;100615.06;;;15.33;79.56
44359;BME280;30077;52.474;13.326;2023-03-21T18:13:14;100616.78;;;15.34;79.80
44359;BME280;30077;52.474;13.326;2023-03-21T18:18:15;100606.22;;;15.31;79.60
44359;BME280;30077;52.474;13.326;2023-03-21T18:23:16;100612.75;;;15.27;79.75
44359;BME280;30077;52.474;13.326;2023-03-21T18:28:18;100608.38;;;15.26;80.00
44359;BME280;30077;52.474;13.326;2023-03-21T18:33:18;100601.03;;;15.28;80.06
44359;BME280;30077;52.474;13.326;2023-03-21T18:38:18;100603.38;;;15.20;80.48
44359;BME280;30077;52.474;13.326;2023-03-21T18:43:18;100606.22;;;15.31;79.89
44359;BME280;30077;52.474;13.326;2023-03-21T18:48:19;100608.56;;;15.23;80.16
44359;BME280;30077;52.474;13.326;2023-03-21T18:53:19;100609.03;;;15.30;79.83
44359;BME280;30077;52.474;13.326;2023-03-21T18:58:21;100614.59;;;15.27;80.48
44359;BME280;30077;52.474;13.326;2023-03-21T19:03:21;100621.69;;;15.28;80.36
44359;BME280;30077;52.474;13.326;2023-03-21T19:08:22;100619.13;;;15.26;80.85
44359;BME280;30077;52.474;13.326;2023-03-21T19:13:22;100616.97;;;15.31;81.82
44359;BME280;30077;52.474;13.326;2023-03-21T19:18:22;100610.69;;;15.18;83.64
44359;BME280;30077;52.474;13.326;2023-03-21T19:23:22;100612.03;;;15.25;82.89
44359;BME280;30077;52.474;13.326;2023-03-21T19:28:22;100610.59;;;15.20;86.70
44359;BME280;30077;52.474;13.326;2023-03-21T19:33:23;100617.97;;;15.16;87.64
44359;BME280;30077;52.474;13.326;2023-03-21T19:38:23;100612.81;;;15.13;87.31
44359;BME280;30077;52.474;13.326;2023-03-21T19:43:23;100605.91;;;15.09;90.05
44359;BME280;30077;52.474;13.326;2023-03-21T19:48:23;100604.97;;;14.96;91.38
44359;BME280;30077;52.474;13.326;2023-03-21T19:53:24;100595.97;;;14.97;94.63
44359;BME280;30077;52.474;13.326;2023-03-21T19:58:24;100607.09;;;14.90;95.92
44359;BME280;30077;52.474;13.326;2023-03-21T20:03:24;100603.56;;;14.90;95.89
44359;BME280;30077;52.474;13.326;2023-03-21T20:08:25;100594.25;;;14.81;97.52
44359;BME280;30077;52.474;13.326;2023-03-21T20:13:25;100595.41;;;14.77;97.25
44359;BME280;30077;52.474;13.326;2023-03-21T20:18:25;100607.00;;;14.78;95.24
44359;BME280;30077;52.474;13.326;2023-03-21T20:23:25;100612.59;;;14.75;94.85
44359;BME280;30077;52.474;13.326;2023-03-21T20:28:25;100606.13;;;14.77;96.37
44359;BME280;30077;52.474;13.326;2023-03-21T20:33:26;100606.75;;;14.68;96.02
44359;BME280;30077;52.474;13.326;2023-03-21T20:38:30;100609.41;;;14.82;96.32
44359;BME280;30077;52.474;13.326;2023-03-21T20:43:30;100608.16;;;14.59;98.08
44359;BME280;30077;52.474;13.326;2023-03-21T20:48:31;100601.44;;;14.52;98.01
44359;BME280;30077;52.474;13.326;2023-03-21T20:53:32;100604.56;;;14.44;98.72
44359;BME280;30077;52.474;13.326;2023-03-21T20:58:36;100594.91;;;14.42;100.00
44359;BME280;30077;52.474;13.326;2023-03-21T21:03:36;100591.16;;;14.44;100.00
44359;BME280;30077;52.474;13.326;2023-03-21T21:08:43;100578.59;;;14.45;100.00
44359;BME280;30077;52.474;13.326;2023-03-21T21:13:44;100577.72;;;14.44;100.00
44359;BME280;30077;52.474;13.326;2023-03-21T21:18:44;100581.19;;;14.47;100.00
44359;BME280;30077;52.474;13.326;2023-03-21T21:23:45;100579.66;;;14.42;100.00
44359;BME280;30077;52.474;13.326;2023-03-21T21:28:45;100587.81;;;14.41;100.00
44359;BME280;30077;52.474;13.326;2023-03-21T21:33:46;100582.53;;;14.39;100.00
44359;BME280;30077;52.474;13.326;2023-03-21T21:38:48;100578.50;;;14.32;100.00
44359;BME280;30077;52.474;13.326;2023-03-21T21:43:49;100569.69;;;14.30;100.00
44359;BME280;30077;52.474;13.326;2023-03-21T21:48:49;100571.81;;;14.25;100.00
44359;BME280;30077;52.474;13.326;2023-03-21T21:53:49;100569.22;;;14.24;100.00
44359;BME280;30077;52.474;13.326;2023-03-21T21:58:50;100572.84;;;14.23;100.00
44359;BME280;30077;52.474;13.326;2023-03-21T22:03:52;100566.63;;;14.22;100.00
44359;BME280;30077;52.474;13.326;2023-03-21T22:08:56;100552.63;;;14.17;100.00
44359;BME280;30077;52.474;13.326;2023-03-21T22:13:57;100566.81;;;14.19;100.00
44359;BME280;30077;52.474;13.326;2023-03-21T22:18:57;100559.63;;;14.05;100.00
44359;BME280;30077;52.474;13.326;2023-03-21T22:23:58;100567.84;;;14.02;100.00
44359;BME280;30077;52.474;13.326;2023-03-21T22:28:58;100561.53;;;14.03;100.00
44359;BME280;30077;52.474;13.326;2023-03-21T22:33:58;100574.94;;;14.03;100.00
44359;BME280;30077;52.474;13.326;2023-03-21T22:38:59;100561.84;;;14.13;100.00
44359;BME280;30077;52.474;13.326;2023-03-21T22:43:59;100560.75;;;14.15;100.00
44359;BME280;30077;52.474;13.326;2023-03-21T22:49:00;100563.91;;;14.08;100.00
44359;BME280;30077;52.474;13.326;2023-03-21T22:54:00;100563.53;;;14.00;100.00
44359;BME280;30077;52.474;13.326;2023-03-21T22:59:01;100555.84;;;13.93;100.00
44359;BME280;30077;52.474;13.326;2023-03-21T23:04:01;100564.50;;;13.99;100.00
44359;BME280;30077;52.474;13.326;2023-03-21T23:09:01;100549.81;;;14.04;100.00
44359;BME280;30077;52.474;13.326;2023-03-21T23:14:01;100556.16;;;14.03;100.00
44359;BME280;30077;52.474;13.326;2023-03-21T23:19:03;100559.41;;;14.08;100.00
44359;BME280;30077;52.474;13.326;2023-03-21T23:24:04;100547.81;;;14.08;100.00
44359;BME280;30077;52.474;13.326;2023-03-21T23:29:04;100543.41;;;14.07;100.00
44359;BME280;30077;52.474;13.326;2023-03-21T23:34:06;100547.16;;;14.04;100.00
44359;BME280;30077;52.474;13.326;2023-03-21T23:39:07;100534.41;;;13.93;100.00
44359;BME280;30077;52.474;13.326;2023-03-21T23:44:07;100527.41;;;13.91;100.00
44359;BME280;30077;52.474;13.326;2023-03-21T23:49:08;100519.25;;;13.78;100.00
44359;BME280;30077;52.474;13.326;2023-03-21T23:54:08;100522.69;;;13.66;100.00
44359;BME280;30077;52.474;13.326;2023-03-21T23:59:09;100524.34;;;13.53;100.00
